Terminal Aerodrome Forecast
Issued by NWS Charleston, WV

Current Version | Previous Version | Graphics & Text | Print | Product List | Glossary On
Versions: 1 2 3 4 5 6 7 8 9 10 11 12 13 14 15 16 17 18 19 20 21 22 23 24 25 26 27
000
FTUS41 KRLX 151720
TAFEKN
TAF
KEKN 151720Z 1518/1618 31004KT P6SM BKN045
     FM152100 31004KT P6SM SCT045
     FM160300 00000KT 5SM BR FEW045
     FM160500 00000KT 1SM BR OVC003
     FM160600 00000KT 1/4SM FG OVC001
     FM161300 00000KT 1 1/2SM BR OVC003
     FM161400 00000KT P6SM SCT040
     FM161500 00000KT P6SM SCT250=

USA.gov is the U.S. government's official web portal to all federal, state and local government web resources and services.